Time;durP1;ratioP1;P1;durP2;ratioP2;P2;SDS_P1;SDS_P2;PMS_P1;PMS_P2;Temp;Humidity;BMP_temperature;BMP_pressure;BME280_temperature;BME280_humidity;BME280_pressure;Samples;Min_cycle;Max_cycle;Signal;HPM_P1;HPM_P2
2021/05/03 00:01:34;;;;;;;1.15;0.75;;;;;;;;;;6842162;28;20098;-77
2021/05/03 00:04:54;;;;;;;0.73;0.63;;;;;;;;;;6842212;28;20023;-77
2021/05/03 00:08:15;;;;;;;1.52;0.60;;;;;;;;;;6842520;28;20033;-77
2021/05/03 00:11:35;;;;;;;0.70;0.68;;;;;;;;;;6842457;28;20071;-76
2021/05/03 00:14:56;;;;;;;1.13;0.50;;;;;;;;;;6842390;29;20416;-76
2021/05/03 00:18:16;;;;;;;0.73;0.73;;;;;;;;;;6841914;28;20031;-77
2021/05/03 00:21:36;;;;;;;0.93;0.77;;;;;;;;;;6841729;28;20078;-77
2021/05/03 00:24:57;;;;;;;0.47;0.47;;;;;;;;;;6841312;28;20137;-76
2021/05/03 00:28:18;;;;;;;0.50;0.50;;;;;;;;;;6908515;23;20578;-77
2021/05/03 00:31:38;;;;;;;1.08;0.70;;;;;;;;;;6915536;28;20068;-77
2021/05/03 00:34:58;;;;;;;0.88;0.60;;;;;;;;;;6908900;28;20026;-77
2021/05/03 00:38:19;;;;;;;1.13;0.50;;;;;;;;;;6918349;28;20038;-76
2021/05/03 00:41:39;;;;;;;0.50;0.50;;;;;;;;;;6906895;28;20061;-77
2021/05/03 00:45:11;;;;;;;0.50;0.50;;;;;;;;;;6910255;28;20353;-77
2021/05/03 00:48:31;;;;;;;0.57;0.50;;;;;;;;;;6903208;28;20038;-76
2021/05/03 00:51:53;;;;;;;1.15;0.52;;;;;;;;;;6912350;28;20176;-76
2021/05/03 00:55:13;;;;;;;1.10;0.60;;;;;;;;;;6916298;28;20033;-76
2021/05/03 00:58:35;;;;;;;0.73;0.60;;;;;;;;;;6899770;28;20424;-76
2021/05/03 01:01:55;;;;;;;0.70;0.60;;;;;;;;;;6900183;28;20048;-76
2021/05/03 01:05:16;;;;;;;1.52;0.55;;;;;;;;;;6899704;28;20026;-76
2021/05/03 01:08:36;;;;;;;0.60;0.60;;;;;;;;;;6895718;28;20110;-77
2021/05/03 01:11:57;;;;;;;0.68;0.52;;;;;;;;;;6901515;28;20116;-76
2021/05/03 01:15:24;;;;;;;1.63;0.60;;;;;;;;;;6907637;28;20037;-76
2021/05/03 01:18:44;;;;;;;1.75;0.60;;;;;;;;;;6915813;28;20499;-77
2021/05/03 01:22:05;;;;;;;0.55;0.55;;;;;;;;;;6913271;28;20057;-76
2021/05/03 01:25:28;;;;;;;0.50;0.50;;;;;;;;;;6921677;28;20157;-76
2021/05/03 01:28:49;;;;;;;0.88;0.63;;;;;;;;;;6901763;28;20047;-77
2021/05/03 01:32:09;;;;;;;0.60;0.60;;;;;;;;;;6898097;28;20022;-76
2021/05/03 01:35:29;;;;;;;2.22;0.70;;;;;;;;;;6903010;28;20022;-75
2021/05/03 01:38:50;;;;;;;1.33;0.60;;;;;;;;;;6895661;28;20464;-76
2021/05/03 01:42:10;;;;;;;0.70;0.68;;;;;;;;;;6903029;28;20026;-75
2021/05/03 01:45:32;;;;;;;3.33;0.80;;;;;;;;;;6894971;28;20070;-75
2021/05/03 01:48:54;;;;;;;0.60;0.55;;;;;;;;;;6902507;28;20038;-75
2021/05/03 01:52:15;;;;;;;2.85;0.60;;;;;;;;;;6904754;28;20026;-76
2021/05/03 01:55:37;;;;;;;1.90;0.75;;;;;;;;;;6891626;28;20026;-75
2021/05/03 01:58:57;;;;;;;2.88;0.70;;;;;;;;;;6910208;28;20045;-75
2021/05/03 02:02:18;;;;;;;2.85;0.60;;;;;;;;;;6920506;28;20030;-75
2021/05/03 02:05:38;;;;;;;1.20;0.77;;;;;;;;;;6906097;28;20041;-75
2021/05/03 02:09:04;;;;;;;0.52;0.52;;;;;;;;;;6911991;28;20069;-76
2021/05/03 02:12:24;;;;;;;0.65;0.50;;;;;;;;;;6919516;28;20104;-76
2021/05/03 02:15:48;;;;;;;0.80;0.60;;;;;;;;;;6920069;28;20041;-76
2021/05/03 02:19:09;;;;;;;1.52;0.80;;;;;;;;;;6900757;28;20034;-76
2021/05/03 02:22:29;;;;;;;1.48;0.77;;;;;;;;;;6915576;28;20104;-75
2021/05/03 02:25:49;;;;;;;1.00;0.70;;;;;;;;;;6897954;28;20026;-75
2021/05/03 02:29:10;;;;;;;1.15;0.90;;;;;;;;;;6902458;28;20042;-75
2021/05/03 02:32:37;;;;;;;0.75;0.70;;;;;;;;;;6912735;28;20408;-75
2021/05/03 02:35:57;;;;;;;1.13;0.60;;;;;;;;;;6894424;28;20057;-75
2021/05/03 02:39:18;;;;;;;0.70;0.60;;;;;;;;;;6906364;28;20038;-75
2021/05/03 02:42:38;;;;;;;0.60;0.60;;;;;;;;;;6892460;28;20456;-74
2021/05/03 02:45:59;;;;;;;1.83;0.82;;;;;;;;;;6907123;28;20089;-75
2021/05/03 02:49:19;;;;;;;4.13;0.70;;;;;;;;;;6901641;28;20034;-76
2021/05/03 02:52:40;;;;;;;1.67;0.70;;;;;;;;;;6910638;28;20113;-76
2021/05/03 02:56:01;;;;;;;2.13;0.80;;;;;;;;;;6919231;28;20069;-75
2021/05/03 02:59:21;;;;;;;1.02;0.70;;;;;;;;;;6910353;28;20030;-76
2021/05/03 03:02:42;;;;;;;2.38;0.80;;;;;;;;;;6897239;28;20039;-75
2021/05/03 03:06:02;;;;;;;1.10;0.55;;;;;;;;;;6897575;28;20035;-76
2021/05/03 03:09:23;;;;;;;1.52;0.80;;;;;;;;;;6897128;28;20030;-76
2021/05/03 03:12:44;;;;;;;1.35;0.73;;;;;;;;;;6897545;28;20060;-76
2021/05/03 03:16:04;;;;;;;1.48;0.70;;;;;;;;;;6896565;28;20065;-75
2021/05/03 03:19:25;;;;;;;1.23;0.80;;;;;;;;;;6896298;28;20026;-76
2021/05/03 03:22:46;;;;;;;1.00;0.80;;;;;;;;;;6896843;28;20439;-75
2021/05/03 03:26:06;;;;;;;0.75;0.70;;;;;;;;;;6893793;28;20043;-75
2021/05/03 03:29:27;;;;;;;2.05;0.70;;;;;;;;;;6896594;28;20210;-75
2021/05/03 03:32:48;;;;;;;1.65;0.75;;;;;;;;;;6896451;28;20042;-75
2021/05/03 03:36:08;;;;;;;0.93;0.80;;;;;;;;;;6896470;28;20027;-75
2021/05/03 03:39:28;;;;;;;2.55;0.85;;;;;;;;;;6896651;28;20367;-76
2021/05/03 03:42:49;;;;;;;0.88;0.60;;;;;;;;;;6896282;28;20065;-75
2021/05/03 03:46:09;;;;;;;0.65;0.65;;;;;;;;;;6896322;28;20038;-76
2021/05/03 03:49:30;;;;;;;1.92;0.60;;;;;;;;;;6896587;28;20164;-75
2021/05/03 03:52:50;;;;;;;0.60;0.60;;;;;;;;;;6896988;28;20065;-75
2021/05/03 03:56:15;;;;;;;2.08;0.63;;;;;;;;;;6895772;28;20042;-76
2021/05/03 03:59:40;;;;;;;0.52;0.52;;;;;;;;;;6895225;28;20146;-74
2021/05/03 04:03:01;;;;;;;0.65;0.65;;;;;;;;;;6896458;28;20098;-75
2021/05/03 04:06:31;;;;;;;1.42;0.80;;;;;;;;;;6900621;28;20042;-76
2021/05/03 04:24:20;;;;;;;0.65;0.65;;;;;;;;;;6895075;28;20464;-75
2021/05/03 04:27:40;;;;;;;1.02;0.60;;;;;;;;;;6895709;28;20030;-75
2021/05/03 04:31:01;;;;;;;0.60;0.60;;;;;;;;;;6895884;28;20084;-76
2021/05/03 04:34:21;;;;;;;0.70;0.60;;;;;;;;;;6894885;28;20030;-75
2021/05/03 04:37:41;;;;;;;2.55;0.60;;;;;;;;;;6895594;28;20073;-75
2021/05/03 04:41:02;;;;;;;2.25;0.95;;;;;;;;;;6895280;28;20030;-76
2021/05/03 04:44:22;;;;;;;0.75;0.60;;;;;;;;;;6895205;28;20038;-75
2021/05/03 04:47:43;;;;;;;0.75;0.70;;;;;;;;;;6895987;28;20476;-75
2021/05/03 04:51:04;;;;;;;1.10;0.68;;;;;;;;;;6895394;28;20069;-75
2021/05/03 04:54:24;;;;;;;0.77;0.70;;;;;;;;;;6894503;28;20085;-77
2021/05/03 04:57:45;;;;;;;0.95;0.65;;;;;;;;;;6895355;28;20034;-76
2021/05/03 05:01:06;;;;;;;0.85;0.70;;;;;;;;;;6894115;28;20116;-76
2021/05/03 05:04:26;;;;;;;1.40;0.80;;;;;;;;;;6894005;28;20037;-78
2021/05/03 05:07:47;;;;;;;1.02;0.63;;;;;;;;;;6894675;28;20030;-77
2021/05/03 05:11:07;;;;;;;1.05;0.70;;;;;;;;;;6894648;28;20077;-77
2021/05/03 05:14:28;;;;;;;0.52;0.52;;;;;;;;;;6894465;28;20058;-77
2021/05/03 05:17:49;;;;;;;0.75;0.70;;;;;;;;;;6894352;28;20468;-77
2021/05/03 05:21:09;;;;;;;0.68;0.68;;;;;;;;;;6894673;28;20042;-77
2021/05/03 05:24:30;;;;;;;0.50;0.50;;;;;;;;;;6893080;28;20038;-76
2021/05/03 05:27:50;;;;;;;0.60;0.60;;;;;;;;;;6892314;28;20022;-78
2021/05/03 05:31:11;;;;;;;0.60;0.60;;;;;;;;;;6893250;28;20453;-77
2021/05/03 05:34:31;;;;;;;0.50;0.50;;;;;;;;;;6893707;28;20030;-77
2021/05/03 05:37:51;;;;;;;0.90;0.60;;;;;;;;;;6893649;28;20086;-77
2021/05/03 05:41:14;;;;;;;0.88;0.70;;;;;;;;;;6893950;28;20026;-77
2021/05/03 05:44:34;;;;;;;1.17;0.70;;;;;;;;;;6893175;28;20037;-77
2021/05/03 05:47:54;;;;;;;0.60;0.60;;;;;;;;;;6893571;28;20053;-77
2021/05/03 05:51:15;;;;;;;1.75;0.60;;;;;;;;;;6893245;28;20589;-77
2021/05/03 05:54:36;;;;;;;0.60;0.60;;;;;;;;;;6891721;28;20050;-78
2021/05/03 05:57:56;;;;;;;0.90;0.70;;;;;;;;;;6891190;28;20038;-77
2021/05/03 06:01:17;;;;;;;2.72;0.60;;;;;;;;;;6892717;28;20034;-76
2021/05/03 06:04:37;;;;;;;1.02;0.50;;;;;;;;;;6891553;28;20045;-77
2021/05/03 06:07:58;;;;;;;1.48;0.60;;;;;;;;;;6891804;28;20039;-77
2021/05/03 06:11:19;;;;;;;0.55;0.50;;;;;;;;;;6891121;28;20034;-77
2021/05/03 06:14:39;;;;;;;0.50;0.50;;;;;;;;;;6891996;28;20073;-77
2021/05/03 06:18:00;;;;;;;0.50;0.50;;;;;;;;;;6890870;28;20034;-77
2021/05/03 06:21:20;;;;;;;1.45;0.50;;;;;;;;;;6890931;28;20062;-78
2021/05/03 06:24:41;;;;;;;1.15;0.50;;;;;;;;;;6892022;28;20041;-78
2021/05/03 06:28:02;;;;;;;0.82;0.63;;;;;;;;;;6892474;28;20080;-76
2021/05/03 06:31:22;;;;;;;0.50;0.50;;;;;;;;;;6892056;28;20030;-77
2021/05/03 06:34:43;;;;;;;1.10;0.70;;;;;;;;;;6890471;28;20400;-77
2021/05/03 06:38:05;;;;;;;0.85;0.70;;;;;;;;;;6891406;28;20030;-78
2021/05/03 06:41:26;;;;;;;2.30;0.70;;;;;;;;;;6894225;28;20035;-77
2021/05/03 06:44:46;;;;;;;1.42;0.70;;;;;;;;;;6893656;28;20035;-78
2021/05/03 06:48:08;;;;;;;2.35;0.80;;;;;;;;;;6893738;28;20042;-77
2021/05/03 06:51:28;;;;;;;0.50;0.50;;;;;;;;;;6891191;28;20073;-77
2021/05/03 06:54:49;;;;;;;1.90;0.75;;;;;;;;;;6894143;28;20023;-78
2021/05/03 06:58:09;;;;;;;2.17;0.60;;;;;;;;;;6892471;28;20484;-77
2021/05/03 07:01:29;;;;;;;1.33;0.70;;;;;;;;;;6890382;28;20057;-78
2021/05/03 07:04:50;;;;;;;1.48;0.45;;;;;;;;;;6891802;28;20042;-77
2021/05/03 07:08:11;;;;;;;2.47;0.75;;;;;;;;;;6893943;28;20130;-76
2021/05/03 07:11:32;;;;;;;3.95;0.88;;;;;;;;;;6890835;28;20130;-76
2021/05/03 07:14:53;;;;;;;0.82;0.60;;;;;;;;;;6889289;28;20069;-77
2021/05/03 07:18:13;;;;;;;5.13;1.10;;;;;;;;;;6891099;28;20058;-79
2021/05/03 07:21:35;;;;;;;1.27;0.85;;;;;;;;;;6893317;28;20464;-78
2021/05/03 07:24:56;;;;;;;3.05;0.90;;;;;;;;;;6892533;28;20117;-78
2021/05/03 07:28:17;;;;;;;1.35;1.00;;;;;;;;;;6893259;28;20049;-79
2021/05/03 07:31:37;;;;;;;2.15;0.75;;;;;;;;;;6893683;28;20464;-77
2021/05/03 07:34:57;;;;;;;4.00;0.80;;;;;;;;;;6894245;28;20455;-78
2021/05/03 07:38:19;;;;;;;0.82;0.82;;;;;;;;;;6890281;28;20026;-78
2021/05/03 07:41:41;;;;;;;1.42;1.00;;;;;;;;;;6898178;28;20034;-78
2021/05/03 07:45:01;;;;;;;0.77;0.77;;;;;;;;;;6898605;28;20026;-78
2021/05/03 07:48:22;;;;;;;1.05;0.93;;;;;;;;;;6898084;28;20069;-78
2021/05/03 07:51:42;;;;;;;0.80;0.80;;;;;;;;;;6898163;28;20430;-78
2021/05/03 07:55:04;;;;;;;1.25;0.68;;;;;;;;;;6896599;28;20120;-78
2021/05/03 07:58:24;;;;;;;3.13;0.80;;;;;;;;;;6895537;28;20092;-77
2021/05/03 08:01:45;;;;;;;0.80;0.80;;;;;;;;;;6896383;28;20057;-75
2021/05/03 08:05:06;;;;;;;3.38;1.13;;;;;;;;;;6896178;28;20460;-76
2021/05/03 08:08:26;;;;;;;3.15;0.93;;;;;;;;;;6895451;28;20034;-76
2021/05/03 08:11:47;;;;;;;4.32;1.00;;;;;;;;;;6896058;28;20110;-78
2021/05/03 08:15:12;;;;;;;1.77;0.80;;;;;;;;;;6895308;28;20510;-76
2021/05/03 08:18:33;;;;;;;2.30;0.90;;;;;;;;;;6895829;28;20038;-76
2021/05/03 08:21:54;;;;;;;2.72;0.57;;;;;;;;;;6894644;28;20038;-77
2021/05/03 08:25:15;;;;;;;4.75;0.82;;;;;;;;;;6895103;28;20103;-76
2021/05/03 08:28:35;;;;;;;2.03;1.08;;;;;;;;;;6895417;28;20042;-77
2021/05/03 08:31:56;;;;;;;0.80;0.80;;;;;;;;;;6899540;28;20037;-77
2021/05/03 08:35:17;;;;;;;2.28;1.08;;;;;;;;;;6897134;28;20026;-77
2021/05/03 08:38:37;;;;;;;3.38;1.05;;;;;;;;;;6895923;28;20073;-77
2021/05/03 08:41:59;;;;;;;1.35;1.13;;;;;;;;;;6895636;28;20030;-76
2021/05/03 08:45:20;;;;;;;4.72;0.82;;;;;;;;;;6894542;28;20153;-77
2021/05/03 08:48:59;;;;;;;2.28;0.90;;;;;;;;;;6905747;28;20033;-79
2021/05/03 08:52:25;;;;;;;3.38;1.00;;;;;;;;;;6894655;28;20034;-81
2021/05/03 08:56:12;;;;;;;3.78;0.73;;;;;;;;;;7049337;27;805246;-86
2021/05/03 08:59:37;;;;;;;2.95;0.80;;;;;;;;;;7059089;28;20027;-80
2021/05/03 09:02:59;;;;;;;2.03;1.00;;;;;;;;;;7046079;28;20393;-81
2021/05/03 09:06:20;;;;;;;3.70;1.00;;;;;;;;;;7058090;28;20457;-81
2021/05/03 09:09:43;;;;;;;2.80;0.85;;;;;;;;;;7049086;28;20085;-77
2021/05/03 09:13:08;;;;;;;3.33;0.80;;;;;;;;;;6998013;28;20094;-84
2021/05/03 09:16:28;;;;;;;1.77;0.80;;;;;;;;;;6982409;28;20033;-83
2021/05/03 09:19:49;;;;;;;2.40;0.73;;;;;;;;;;6973173;28;20028;-81
2021/05/03 09:23:19;;;;;;;1.95;0.70;;;;;;;;;;6985171;28;20103;-82
2021/05/03 09:27:05;;;;;;;1.60;0.60;;;;;;;;;;6981860;28;20040;-79
2021/05/03 09:30:38;;;;;;;2.05;0.80;;;;;;;;;;6981872;28;20025;-85
2021/05/03 09:34:01;;;;;;;4.30;0.82;;;;;;;;;;6954754;28;20037;-79
2021/05/03 09:37:33;;;;;;;4.60;0.70;;;;;;;;;;6977852;28;20033;-83
2021/05/03 09:41:09;;;;;;;3.20;0.90;;;;;;;;;;6971399;28;20033;-80
2021/05/03 09:44:30;;;;;;;0.80;0.80;;;;;;;;;;6973805;28;20044;-79
2021/05/03 09:47:55;;;;;;;1.23;0.57;;;;;;;;;;6967981;28;20037;-79
2021/05/03 09:51:59;;;;;;;3.28;0.80;;;;;;;;;;6987234;28;20036;-81
2021/05/03 09:55:43;;;;;;;2.17;0.90;;;;;;;;;;6970423;28;20068;-79
2021/05/03 09:59:03;;;;;;;0.63;0.63;;;;;;;;;;6972601;28;20041;-79
2021/05/03 10:02:33;;;;;;;2.35;0.75;;;;;;;;;;7000704;28;20087;-81
2021/05/03 10:05:54;;;;;;;2.00;0.85;;;;;;;;;;6964386;28;20028;-80
2021/05/03 10:09:14;;;;;;;1.33;0.80;;;;;;;;;;6942708;28;20029;-82
2021/05/03 10:12:35;;;;;;;1.55;0.75;;;;;;;;;;6945336;28;20021;-83
2021/05/03 10:15:57;;;;;;;0.68;0.57;;;;;;;;;;6951949;28;20072;-83
2021/05/03 10:19:20;;;;;;;3.50;0.70;;;;;;;;;;6948781;28;20045;-84
2021/05/03 10:22:40;;;;;;;1.48;0.75;;;;;;;;;;6953491;28;20033;-84
2021/05/03 10:26:01;;;;;;;1.10;0.60;;;;;;;;;;6963439;28;20083;-83
2021/05/03 10:29:52;;;;;;;0.88;0.73;;;;;;;;;;6950276;28;20032;-83
2021/05/03 10:33:14;;;;;;;0.75;0.60;;;;;;;;;;6954151;28;20037;-83
2021/05/03 10:36:36;;;;;;;0.50;0.50;;;;;;;;;;6958071;28;20022;-82
2021/05/03 10:40:18;;;;;;;1.02;0.70;;;;;;;;;;6963116;28;20056;-83
2021/05/03 10:43:43;;;;;;;1.67;0.90;;;;;;;;;;6949978;28;20037;-83
2021/05/03 10:47:27;;;;;;;0.73;0.73;;;;;;;;;;6946280;28;20061;-83
2021/05/03 10:50:49;;;;;;;0.85;0.85;;;;;;;;;;6948763;28;20040;-84
2021/05/03 10:54:27;;;;;;;3.30;0.80;;;;;;;;;;6954455;28;20049;-83
2021/05/03 10:58:06;;;;;;;1.90;0.73;;;;;;;;;;6945300;28;20061;-83
2021/05/03 11:01:26;;;;;;;4.68;0.98;;;;;;;;;;6951976;28;20041;-83
2021/05/03 11:05:32;;;;;;;1.05;0.70;;;;;;;;;;6953548;28;20042;-82
2021/05/03 11:09:30;;;;;;;1.25;0.70;;;;;;;;;;6941304;28;20029;-83
2021/05/03 11:12:51;;;;;;;0.60;0.60;;;;;;;;;;6966923;28;20069;-84
2021/05/03 11:16:30;;;;;;;1.50;0.80;;;;;;;;;;6960092;28;20086;-83
2021/05/03 11:23:28;;;;;;;3.25;0.65;;;;;;;;;;6947239;28;20057;-82
2021/05/03 11:26:54;;;;;;;7.22;1.00;;;;;;;;;;6964019;28;20040;-81
2021/05/03 11:30:28;;;;;;;3.65;0.98;;;;;;;;;;6967881;28;20025;-84
2021/05/03 11:34:03;;;;;;;5.03;1.13;;;;;;;;;;6953486;28;20030;-84
2021/05/03 11:37:39;;;;;;;5.55;0.88;;;;;;;;;;6953373;28;20032;-84
2021/05/03 11:44:46;;;;;;;1.55;0.63;;;;;;;;;;6955622;28;20057;-84
2021/05/03 11:48:07;;;;;;;1.58;1.00;;;;;;;;;;6945956;28;20041;-84
2021/05/03 11:51:28;;;;;;;1.20;0.70;;;;;;;;;;6957832;28;20113;-84
2021/05/03 11:54:48;;;;;;;2.60;1.02;;;;;;;;;;6948654;28;20124;-84
2021/05/03 11:58:08;;;;;;;3.22;0.70;;;;;;;;;;6971788;28;20106;-84
2021/05/03 12:01:29;;;;;;;9.32;0.95;;;;;;;;;;6957970;28;20065;-84
2021/05/03 12:04:50;;;;;;;0.98;0.70;;;;;;;;;;6940724;28;20029;-84
2021/05/03 12:08:15;;;;;;;3.65;0.80;;;;;;;;;;6940857;28;20064;-84
2021/05/03 12:11:36;;;;;;;1.85;0.68;;;;;;;;;;6950767;28;20029;-84
2021/05/03 12:14:56;;;;;;;2.75;0.88;;;;;;;;;;6953420;28;20448;-84
2021/05/03 12:18:19;;;;;;;0.77;0.68;;;;;;;;;;6977004;28;20458;-84
2021/05/03 12:21:40;;;;;;;1.65;0.90;;;;;;;;;;6961288;28;20492;-86
2021/05/03 12:25:06;;;;;;;2.75;0.50;;;;;;;;;;6956510;28;20481;-85
2021/05/03 12:28:28;;;;;;;3.60;0.82;;;;;;;;;;6968849;23;20054;-84
2021/05/03 12:31:48;;;;;;;2.50;1.00;;;;;;;;;;6908685;28;20031;-84
2021/05/03 12:35:10;;;;;;;3.20;0.80;;;;;;;;;;6897128;28;20061;-84
2021/05/03 12:38:31;;;;;;;4.18;0.60;;;;;;;;;;6894837;28;20035;-88
2021/05/03 12:41:51;;;;;;;2.25;0.90;;;;;;;;;;6906144;28;20026;-88
2021/05/03 12:49:03;;;;;;;0.65;0.55;;;;;;;;;;6902997;28;20022;-86
2021/05/03 12:52:33;;;;;;;0.90;0.50;;;;;;;;;;6896524;28;20117;-86
2021/05/03 12:59:55;;;;;;;1.95;0.65;;;;;;;;;;6889284;28;20039;-86
2021/05/03 13:03:27;;;;;;;1.50;0.85;;;;;;;;;;6886748;28;20031;-86
2021/05/03 13:25:36;;;;;;;1.15;0.68;;;;;;;;;;6912550;28;20046;-85
2021/05/03 13:29:02;;;;;;;0.80;0.65;;;;;;;;;;6894644;28;20058;-85
2021/05/03 13:32:28;;;;;;;1.10;0.70;;;;;;;;;;6887108;28;20106;-85
2021/05/03 13:35:48;;;;;;;1.58;0.88;;;;;;;;;;6885646;28;20026;-86
2021/05/03 13:39:10;;;;;;;0.73;0.73;;;;;;;;;;6906503;28;20113;-85
2021/05/03 13:42:30;;;;;;;1.35;0.80;;;;;;;;;;6901356;28;20065;-85
2021/05/03 13:45:51;;;;;;;0.68;0.68;;;;;;;;;;6890602;28;20034;-86
2021/05/03 13:49:11;;;;;;;4.22;0.98;;;;;;;;;;6891590;28;20030;-88
2021/05/03 13:52:32;;;;;;;1.75;0.90;;;;;;;;;;6901169;28;20061;-86
2021/05/03 13:55:54;;;;;;;0.85;0.73;;;;;;;;;;6911061;28;20065;-87
2021/05/03 13:59:14;;;;;;;3.50;0.80;;;;;;;;;;6900624;28;20030;-87
2021/05/03 14:02:35;;;;;;;0.50;0.50;;;;;;;;;;6901149;28;20122;-87
2021/05/03 14:05:55;;;;;;;1.27;0.70;;;;;;;;;;6897152;28;20026;-91
2021/05/03 14:09:16;;;;;;;3.08;0.80;;;;;;;;;;6905766;28;20108;-87
2021/05/03 14:12:37;;;;;;;4.90;0.85;;;;;;;;;;6907297;28;20467;-87
2021/05/03 14:15:57;;;;;;;1.30;0.90;;;;;;;;;;6905613;28;20034;-88
2021/05/03 14:19:19;;;;;;;0.80;0.80;;;;;;;;;;6909395;28;20384;-87
2021/05/03 14:22:40;;;;;;;4.85;0.70;;;;;;;;;;6900252;28;20468;-88
2021/05/03 14:26:02;;;;;;;0.85;0.73;;;;;;;;;;6900638;28;20038;-87
2021/05/03 14:33:01;;;;;;;1.45;0.73;;;;;;;;;;6899964;28;20123;-87
2021/05/03 14:36:21;;;;;;;3.40;0.75;;;;;;;;;;6899736;28;20030;-88
2021/05/03 14:39:41;;;;;;;1.95;0.80;;;;;;;;;;6899125;28;20120;-87
2021/05/03 14:43:06;;;;;;;1.05;0.80;;;;;;;;;;6893666;28;20092;-87
2021/05/03 14:46:35;;;;;;;22.63;0.98;;;;;;;;;;6898731;28;20026;-88
2021/05/03 14:50:07;;;;;;;4.20;1.02;;;;;;;;;;6899694;28;20026;-88
2021/05/03 14:53:54;;;;;;;1.33;0.70;;;;;;;;;;6900357;28;20034;-88
2021/05/03 14:57:19;;;;;;;4.22;1.20;;;;;;;;;;6894197;28;20039;-87
2021/05/03 15:00:39;;;;;;;3.05;1.13;;;;;;;;;;6899414;28;20042;-87
2021/05/03 15:04:00;;;;;;;1.63;0.90;;;;;;;;;;6908229;28;20034;-87
2021/05/03 15:07:20;;;;;;;1.00;0.60;;;;;;;;;;6909032;28;20106;-87
2021/05/03 15:10:42;;;;;;;1.48;0.70;;;;;;;;;;6915439;28;20400;-87
2021/05/03 15:14:24;;;;;;;3.20;1.00;;;;;;;;;;6902899;28;20088;-88
2021/05/03 15:21:38;;;;;;;1.33;0.85;;;;;;;;;;6873078;28;20105;-87
2021/05/03 15:25:01;;;;;;;3.08;1.10;;;;;;;;;;6895339;28;20042;-86
2021/05/03 15:35:16;;;;;;;2.58;0.80;;;;;;;;;;6889616;28;20030;-87
2021/05/03 15:38:37;;;;;;;4.57;0.80;;;;;;;;;;6885741;28;20030;-87
2021/05/03 15:41:58;;;;;;;3.22;1.08;;;;;;;;;;6894682;28;20030;-89
2021/05/03 15:45:18;;;;;;;1.02;0.70;;;;;;;;;;6892976;28;20097;-87
2021/05/03 15:48:39;;;;;;;0.75;0.70;;;;;;;;;;6896798;28;20069;-87
2021/05/03 15:51:59;;;;;;;2.38;0.90;;;;;;;;;;6895428;28;20022;-87
2021/05/03 15:55:20;;;;;;;1.00;0.75;;;;;;;;;;6896996;28;20030;-87
2021/05/03 15:58:40;;;;;;;1.75;0.98;;;;;;;;;;6896763;28;20033;-87
2021/05/03 16:02:02;;;;;;;1.33;0.80;;;;;;;;;;6901390;28;20384;-88
2021/05/03 16:05:23;;;;;;;1.27;0.88;;;;;;;;;;6895060;28;20026;-87
2021/05/03 16:08:44;;;;;;;0.75;0.70;;;;;;;;;;6896116;28;20045;-88
2021/05/03 16:12:05;;;;;;;0.70;0.60;;;;;;;;;;6893198;28;20181;-87
2021/05/03 16:15:26;;;;;;;1.40;0.90;;;;;;;;;;6891050;28;20385;-88
2021/05/03 16:18:47;;;;;;;0.70;0.70;;;;;;;;;;6890025;28;20040;-87
2021/05/03 16:22:07;;;;;;;0.75;0.68;;;;;;;;;;6880649;28;20042;-86
2021/05/03 16:25:30;;;;;;;0.88;0.60;;;;;;;;;;6883576;28;20062;-85
2021/05/03 16:28:51;;;;;;;1.38;0.88;;;;;;;;;;6874865;28;20047;-87
2021/05/03 16:32:11;;;;;;;0.70;0.70;;;;;;;;;;6892082;28;20030;-88
2021/05/03 16:35:32;;;;;;;0.80;0.80;;;;;;;;;;6897392;28;20113;-87
2021/05/03 16:38:52;;;;;;;1.23;0.60;;;;;;;;;;6894063;28;20089;-87
2021/05/03 16:42:13;;;;;;;1.42;0.88;;;;;;;;;;6895775;28;20031;-87
2021/05/03 16:45:33;;;;;;;1.08;0.73;;;;;;;;;;6893792;28;20197;-87
2021/05/03 16:48:54;;;;;;;0.95;0.80;;;;;;;;;;6892050;28;20034;-88
2021/05/03 16:52:15;;;;;;;1.05;0.60;;;;;;;;;;6892307;28;20073;-87
2021/05/03 16:55:35;;;;;;;1.70;0.85;;;;;;;;;;6889412;28;20037;-88
2021/05/03 16:58:55;;;;;;;1.88;0.70;;;;;;;;;;6884230;28;20030;-87
2021/05/03 17:02:16;;;;;;;1.02;0.88;;;;;;;;;;6892493;28;20038;-88
2021/05/03 17:05:36;;;;;;;0.65;0.65;;;;;;;;;;6896016;28;20122;-88
2021/05/03 17:08:57;;;;;;;1.35;0.60;;;;;;;;;;6892965;28;20516;-88
2021/05/03 17:12:17;;;;;;;0.80;0.80;;;;;;;;;;6897365;28;20049;-87
2021/05/03 17:15:37;;;;;;;1.52;0.68;;;;;;;;;;6895577;28;20037;-87
2021/05/03 17:18:58;;;;;;;3.33;0.88;;;;;;;;;;6900803;28;20077;-88
2021/05/03 17:22:18;;;;;;;0.90;0.75;;;;;;;;;;6901544;28;20165;-88
2021/05/03 17:25:40;;;;;;;0.93;0.85;;;;;;;;;;6890155;28;20376;-88
2021/05/03 17:29:03;;;;;;;1.27;0.70;;;;;;;;;;6900659;28;20181;-88
2021/05/03 17:32:24;;;;;;;1.85;0.95;;;;;;;;;;6915293;28;20034;-88
2021/05/03 17:35:45;;;;;;;3.50;0.90;;;;;;;;;;6893502;28;20026;-87
2021/05/03 17:39:08;;;;;;;0.73;0.73;;;;;;;;;;6909158;28;20030;-86
2021/05/03 17:42:29;;;;;;;2.28;0.70;;;;;;;;;;6903169;28;20038;-88
2021/05/03 17:45:50;;;;;;;0.68;0.68;;;;;;;;;;6900935;28;20038;-88
2021/05/03 17:49:10;;;;;;;0.70;0.68;;;;;;;;;;6902724;28;20034;-88
2021/05/03 17:52:30;;;;;;;1.58;0.73;;;;;;;;;;6900579;28;20388;-88
2021/05/03 17:55:51;;;;;;;1.73;0.98;;;;;;;;;;6901582;28;20053;-87
2021/05/03 17:59:12;;;;;;;8.20;0.90;;;;;;;;;;6887876;28;20122;-83
2021/05/03 18:02:32;;;;;;;9.25;1.00;;;;;;;;;;6895700;28;20070;-80
2021/05/03 18:05:52;;;;;;;2.65;0.85;;;;;;;;;;6894391;28;20030;-80
2021/05/03 18:09:13;;;;;;;5.18;1.27;;;;;;;;;;6895584;28;20160;-80
2021/05/03 18:12:33;;;;;;;3.00;1.33;;;;;;;;;;6888644;28;20034;-79
2021/05/03 18:15:54;;;;;;;9.32;1.60;;;;;;;;;;6894209;28;20038;-81
2021/05/03 18:19:15;;;;;;;3.03;1.00;;;;;;;;;;6895667;28;20037;-80
2021/05/03 18:22:35;;;;;;;6.05;1.13;;;;;;;;;;6898542;28;20050;-81
2021/05/03 18:25:56;;;;;;;2.65;1.10;;;;;;;;;;6895770;28;20034;-80
2021/05/03 18:29:19;;;;;;;10.25;1.17;;;;;;;;;;6908415;28;20177;-80
2021/05/03 18:32:48;;;;;;;5.85;1.23;;;;;;;;;;6915837;28;20030;-82
2021/05/03 18:36:14;;;;;;;2.75;1.10;;;;;;;;;;6903497;28;20510;-83
2021/05/03 18:39:34;;;;;;;3.83;0.90;;;;;;;;;;6910383;28;20034;-83
2021/05/03 18:42:55;;;;;;;4.60;1.10;;;;;;;;;;6899747;28;20482;-83
2021/05/03 18:46:15;;;;;;;4.40;1.00;;;;;;;;;;6894283;28;20033;-83
2021/05/03 18:49:40;;;;;;;2.75;1.00;;;;;;;;;;6901106;28;20490;-83
2021/05/03 18:53:01;;;;;;;1.60;0.93;;;;;;;;;;6904110;28;20039;-84
2021/05/03 18:56:21;;;;;;;4.45;1.30;;;;;;;;;;6904150;28;20065;-83
2021/05/03 18:59:42;;;;;;;3.78;0.88;;;;;;;;;;6900563;28;20038;-84
2021/05/03 19:03:03;;;;;;;5.40;1.20;;;;;;;;;;6894331;28;20057;-83
2021/05/03 19:06:25;;;;;;;2.95;1.45;;;;;;;;;;6889389;28;20023;-82
2021/05/03 19:14:02;;;;;;;6.53;1.33;;;;;;;;;;6907751;28;20034;-82
2021/05/03 19:17:23;;;;;;;1.77;1.00;;;;;;;;;;6911508;28;20384;-81
2021/05/03 19:20:43;;;;;;;2.35;1.10;;;;;;;;;;6896347;28;20037;-82
2021/05/03 19:24:04;;;;;;;4.38;1.63;;;;;;;;;;6883622;28;20042;-82
2021/05/03 19:27:24;;;;;;;4.20;1.13;;;;;;;;;;6897444;28;20057;-82
2021/05/03 19:31:08;;;;;;;2.08;0.80;;;;;;;;;;6896199;28;20066;-82
2021/05/03 19:34:28;;;;;;;0.98;0.85;;;;;;;;;;6897060;28;20076;-81
2021/05/03 19:37:48;;;;;;;2.58;1.38;;;;;;;;;;6896681;28;20408;-81
2021/05/03 19:41:08;;;;;;;3.08;0.90;;;;;;;;;;6893510;28;20034;-82
2021/05/03 19:44:29;;;;;;;4.85;0.93;;;;;;;;;;6895964;28;20038;-82
2021/05/03 19:47:50;;;;;;;3.08;1.13;;;;;;;;;;6893212;28;20034;-81
2021/05/03 20:05:00;;;;;;;2.67;1.33;;;;;;;;;;6896237;28;20384;-82
2021/05/03 20:08:21;;;;;;;11.32;2.15;;;;;;;;;;6886193;28;20086;-77
2021/05/03 20:11:41;;;;;;;7.35;2.40;;;;;;;;;;6894877;28;20384;-78
2021/05/03 20:15:03;;;;;;;13.95;2.53;;;;;;;;;;6895250;28;20452;-78
2021/05/03 20:18:24;;;;;;;17.65;2.78;;;;;;;;;;6889608;28;20030;-79
2021/05/03 20:21:44;;;;;;;5.38;2.05;;;;;;;;;;6906179;28;20096;-79
2021/05/03 20:25:05;;;;;;;10.95;2.45;;;;;;;;;;6897811;28;20121;-78
2021/05/03 20:28:25;;;;;;;6.60;1.95;;;;;;;;;;6905122;28;20045;-78
2021/05/03 20:31:46;;;;;;;13.23;2.83;;;;;;;;;;6901722;28;20034;-78
2021/05/03 20:35:10;;;;;;;9.35;2.55;;;;;;;;;;6887212;28;20089;-78
2021/05/03 20:38:49;;;;;;;12.50;2.50;;;;;;;;;;6893937;28;20407;-78
2021/05/03 20:42:10;;;;;;;12.75;2.70;;;;;;;;;;6888301;28;20038;-78
2021/05/03 20:45:31;;;;;;;15.50;3.00;;;;;;;;;;6904933;28;20061;-78
2021/05/03 20:48:51;;;;;;;10.77;2.70;;;;;;;;;;6907978;28;20027;-78
2021/05/03 20:52:12;;;;;;;12.25;3.05;;;;;;;;;;6888923;28;20042;-78
2021/05/03 20:55:34;;;;;;;15.68;3.03;;;;;;;;;;6890431;28;20379;-78
2021/05/03 20:58:56;;;;;;;17.30;2.70;;;;;;;;;;6903527;28;20041;-78
2021/05/03 21:02:17;;;;;;;16.38;2.67;;;;;;;;;;6897649;28;20043;-81
2021/05/03 21:05:37;;;;;;;17.58;3.00;;;;;;;;;;6893515;28;20042;-83
2021/05/03 21:08:58;;;;;;;12.77;2.95;;;;;;;;;;6893320;28;20070;-82
2021/05/03 21:12:18;;;;;;;16.92;3.42;;;;;;;;;;6893890;28;20486;-82
2021/05/03 21:15:38;;;;;;;12.82;2.45;;;;;;;;;;6896303;28;20131;-82
2021/05/03 21:18:59;;;;;;;12.48;3.13;;;;;;;;;;6891663;28;20088;-81
2021/05/03 21:22:20;;;;;;;18.88;4.15;;;;;;;;;;6892463;28;20068;-82
2021/05/03 21:25:40;;;;;;;29.17;4.00;;;;;;;;;;6892850;28;20045;-82
2021/05/03 21:29:00;;;;;;;22.55;4.18;;;;;;;;;;6894221;28;20432;-82
2021/05/03 21:32:21;;;;;;;23.42;3.20;;;;;;;;;;6881451;28;20038;-82
2021/05/03 21:35:41;;;;;;;25.90;4.40;;;;;;;;;;6886846;28;20034;-83